IDBO2: Little River, Idabel, OK

Data processed at Sat Mar 10 2018 23:31


All information presented herein is the property of the government of the United States of America and may be revised or deleted at any time without prior notice.
Dissemination of this information without the expressed written consent of the Public Affairs Office, Tulsa District U.S. Army Corps of Engineers is strictly prohibited.
These data are gathered electronically and, as presented, have not undergone any form of quality control. These data are not guaranteed to be valid or correct.
Go to home page.
Go to station list.

Upstream stations:

Downstream station:
Previous Day
Next Day
Current Day
    
SHEF ID:       IDBO2     Little River blw Lukfata Creek
STATION TYPE:  

               PRECIP     STAGE  RIV-FLOW  BAT-LOAD
                   in        ft       cfs      volt
              Ccp-Rev   Ccp-Rev   Ccp-Rev   Ccp-Rev
(US/Central)
03/08 00:00      ----     18.91      6682     12.36
03/08 01:00      ----     19.00      6738     12.36
03/08 02:00      ----     19.07      6781     12.36
03/08 03:00      ----     19.15      6831     12.30
03/08 04:00      ----     19.23      6881     12.30
03/08 05:00      ----     19.30      6925     12.30
03/08 06:00      ----     19.37      6968     12.30
03/08 07:00      ----     19.44      7012     12.30
03/08 08:00      ----     19.49      7044     12.30
03/08 09:00      ----     19.55      7081     12.30
03/08 10:00      ----     19.61      7119     12.30
03/08 11:00      ----     19.66      7151     12.30
03/08 12:00      ----     19.72      7188     12.42
03/08 13:00      ----     19.77      7220     12.48
03/08 14:00      ----     19.81      7245     12.48
03/08 15:00      ----     19.85      7270     12.48
03/08 16:00      ----     19.89      7296     12.54
03/08 17:00      ----     19.93      7321     12.54
03/08 18:00      ----     19.98      7353     12.48
03/08 19:00      ----     20.00      7365     12.48
03/08 20:00      ----     20.04      7391     12.42
03/08 21:00      ----     20.08      7416     12.42
03/08 22:00      ----     20.11      7435     12.42
03/08 23:00      ----     20.14      7454     12.42